Time;durP1;ratioP1;P1;durP2;ratioP2;P2;SDS_P1;SDS_P2;PMS_P1;PMS_P2;Temp;Humidity;BMP_temperature;BMP_pressure;BME280_temperature;BME280_humidity;BME280_pressure;Samples;Min_cycle;Max_cycle;Signal;HPM_P1;HPM_P2
2023/01/15 00:01:04;;;;;;;0.68;0.68;;;7.50;99.90;;;;;;5048728;28;20057;-67
2023/01/15 00:03:30;;;;;;;0.05;0.05;;;7.60;99.90;;;;;;5034297;28;20084;-67
2023/01/15 00:06:00;;;;;;;0.10;0.10;;;7.50;99.90;;;;;;5034206;28;20560;-67
2023/01/15 00:08:26;;;;;;;0.00;0.00;;;7.50;99.90;;;;;;5048039;28;20571;-67
2023/01/15 00:10:51;;;;;;;1.45;1.10;;;7.50;99.90;;;;;;5046967;28;20033;-67
2023/01/15 00:13:17;;;;;;;0.00;0.00;;;7.50;99.90;;;;;;5066753;28;20494;-67
2023/01/15 00:15:42;;;;;;;0.20;0.20;;;7.50;99.90;;;;;;5064910;28;20143;-67
2023/01/15 00:18:08;;;;;;;0.80;0.80;;;7.50;99.90;;;;;;5049202;28;20052;-67
2023/01/15 00:20:34;;;;;;;0.30;0.30;;;7.50;99.90;;;;;;5046460;28;20854;-67
2023/01/15 00:22:59;;;;;;;0.20;0.20;;;7.50;99.90;;;;;;5042957;28;20155;-67
2023/01/15 00:28:13;;;;;;;0.55;0.55;;;7.50;99.90;;;;;;5049108;28;20049;-67
2023/01/15 00:30:41;;;;;;;4.95;1.98;;;7.60;99.90;;;;;;5043967;28;20120;-67
2023/01/15 00:33:08;;;;;;;0.45;0.35;;;7.50;99.90;;;;;;5041104;28;20199;-67
2023/01/15 00:35:34;;;;;;;0.10;0.10;;;7.50;99.90;;;;;;5047308;28;20040;-66
2023/01/15 00:37:59;;;;;;;0.10;0.10;;;7.50;99.90;;;;;;5046059;28;20048;-67
2023/01/15 00:40:25;;;;;;;0.20;0.20;;;7.50;99.90;;;;;;5046560;28;20069;-67
2023/01/15 00:42:51;;;;;;;0.70;0.70;;;7.40;99.90;;;;;;5047740;28;20496;-67
2023/01/15 00:45:16;;;;;;;2.05;1.35;;;7.40;99.90;;;;;;5056217;28;20060;-67
2023/01/15 00:47:43;;;;;;;0.10;0.10;;;7.40;99.90;;;;;;5038397;28;20650;-67
2023/01/15 00:50:12;;;;;;;4.30;2.65;;;7.40;99.90;;;;;;5027953;28;20053;-67
2023/01/15 00:52:38;;;;;;;0.10;0.10;;;7.40;99.90;;;;;;5028492;28;20098;-67
2023/01/15 00:55:05;;;;;;;0.10;0.10;;;7.40;99.90;;;;;;5027008;28;20044;-68
2023/01/15 00:57:31;;;;;;;0.10;0.10;;;7.40;99.90;;;;;;5044806;28;20554;-68
2023/01/15 00:59:57;;;;;;;0.10;0.10;;;7.30;99.90;;;;;;5064473;28;20089;-68
2023/01/15 01:02:22;;;;;;;0.10;0.10;;;7.30;99.90;;;;;;5064350;28;20045;-67
2023/01/15 01:04:48;;;;;;;0.10;0.10;;;7.30;99.90;;;;;;5030201;28;20033;-67
2023/01/15 01:07:14;;;;;;;0.77;0.63;;;7.30;99.90;;;;;;5047224;28;20095;-67
2023/01/15 01:09:39;;;;;;;0.75;0.73;;;7.30;99.90;;;;;;5036272;28;20051;-67
2023/01/15 01:12:05;;;;;;;1.75;0.90;;;7.30;99.90;;;;;;5065370;28;20449;-67
2023/01/15 01:14:31;;;;;;;0.60;0.40;;;7.30;99.90;;;;;;5065967;28;20040;-67
2023/01/15 01:16:57;;;;;;;0.43;0.43;;;7.30;99.90;;;;;;5046762;28;20040;-67
2023/01/15 01:19:24;;;;;;;0.10;0.10;;;7.30;99.90;;;;;;5046771;28;20066;-67
2023/01/15 01:21:50;;;;;;;0.10;0.10;;;7.30;99.90;;;;;;5065044;28;20040;-67
2023/01/15 01:24:19;;;;;;;0.10;0.10;;;7.30;99.90;;;;;;5064664;28;20036;-67
2023/01/15 01:26:45;;;;;;;3.70;1.08;;;7.30;99.90;;;;;;5046104;28;20052;-67
2023/01/15 01:29:16;;;;;;;1.30;0.85;;;7.30;99.90;;;;;;5046482;28;20052;-67
2023/01/15 01:31:42;;;;;;;0.10;0.10;;;7.30;99.90;;;;;;5042777;28;20929;-67
2023/01/15 01:34:09;;;;;;;0.10;0.10;;;7.30;99.90;;;;;;5052343;28;20052;-67
2023/01/15 01:36:37;;;;;;;9.75;2.03;;;7.30;99.90;;;;;;5027040;28;20075;-67
2023/01/15 01:39:04;;;;;;;2.45;1.95;;;7.30;99.90;;;;;;5038714;28;20579;-67
2023/01/15 01:41:30;;;;;;;0.10;0.10;;;7.30;99.90;;;;;;5045554;28;20040;-67
2023/01/15 01:44:02;;;;;;;0.10;0.10;;;7.30;99.90;;;;;;5056311;28;20040;-67
2023/01/15 01:46:30;;;;;;;0.83;0.83;;;7.30;99.90;;;;;;5066625;28;20041;-67
2023/01/15 01:49:05;;;;;;;0.10;0.10;;;7.30;99.90;;;;;;5068954;28;20045;-67
2023/01/15 01:51:36;;;;;;;24.35;1.65;;;7.30;99.90;;;;;;5066311;28;20131;-67
2023/01/15 01:54:02;;;;;;;0.65;0.65;;;7.20;99.90;;;;;;5066686;28;20036;-67
2023/01/15 01:56:32;;;;;;;0.00;0.00;;;7.20;99.90;;;;;;5047560;28;20374;-67
2023/01/15 01:58:58;;;;;;;0.10;0.10;;;7.20;99.90;;;;;;5054796;28;20526;-67
2023/01/15 02:01:25;;;;;;;0.10;0.10;;;7.20;99.90;;;;;;5065754;28;20052;-67
2023/01/15 02:03:52;;;;;;;1.45;1.35;;;7.20;99.90;;;;;;5067521;28;20037;-67
2023/01/15 02:06:17;;;;;;;0.17;0.17;;;7.20;99.90;;;;;;5048723;28;20057;-67
2023/01/15 02:08:43;;;;;;;0.10;0.10;;;7.20;99.90;;;;;;5062807;28;20055;-67
2023/01/15 02:11:15;;;;;;;1.05;0.95;;;7.30;99.90;;;;;;5062831;28;20552;-67
2023/01/15 02:14:04;;;;;;;10.32;3.85;;;7.20;99.90;;;;;;5063053;28;20052;-67
2023/01/15 02:16:39;;;;;;;0.13;0.13;;;7.20;99.90;;;;;;5065748;28;20550;-67
2023/01/15 02:19:26;;;;;;;0.08;0.08;;;7.20;99.90;;;;;;5050064;28;20052;-67
2023/01/15 02:22:21;;;;;;;0.10;0.10;;;7.20;99.90;;;;;;5067140;28;20127;-67
2023/01/15 02:25:09;;;;;;;0.10;0.10;;;7.30;99.90;;;;;;5046404;28;20531;-67
2023/01/15 02:27:38;;;;;;;0.25;0.25;;;7.30;99.90;;;;;;5053437;28;20080;-67
2023/01/15 02:30:21;;;;;;;0.30;0.30;;;7.30;99.90;;;;;;5050267;28;20132;-67
2023/01/15 02:33:13;;;;;;;0.20;0.20;;;7.30;99.90;;;;;;5039825;28;20058;-67
2023/01/15 02:35:51;;;;;;;0.13;0.13;;;7.20;99.90;;;;;;5050467;28;20524;-67
2023/01/15 02:38:20;;;;;;;0.20;0.20;;;7.20;99.90;;;;;;5066323;28;20048;-67
2023/01/15 02:40:48;;;;;;;0.47;0.47;;;7.20;99.90;;;;;;5062404;28;20044;-67
2023/01/15 02:43:16;;;;;;;0.43;0.43;;;7.20;99.90;;;;;;5050596;28;20047;-67
2023/01/15 02:45:45;;;;;;;0.00;0.00;;;7.20;99.90;;;;;;5069043;28;20054;-67
2023/01/15 02:48:17;;;;;;;0.35;0.32;;;7.30;99.90;;;;;;5067193;28;20457;-67
2023/01/15 02:50:49;;;;;;;0.25;0.25;;;7.30;99.90;;;;;;5043208;28;20056;-67
2023/01/15 02:53:23;;;;;;;0.08;0.08;;;7.30;99.90;;;;;;5031088;28;20055;-67
2023/01/15 02:55:52;;;;;;;0.00;0.00;;;7.30;99.90;;;;;;5066811;28;20052;-67
2023/01/15 02:58:27;;;;;;;0.10;0.10;;;7.30;99.90;;;;;;5049815;28;20492;-67
2023/01/15 03:00:57;;;;;;;0.03;0.03;;;7.30;99.90;;;;;;5049778;28;20598;-67
2023/01/15 03:03:48;;;;;;;0.20;0.20;;;7.30;99.90;;;;;;5068307;28;20127;-68
2023/01/15 03:06:26;;;;;;;23.70;1.08;;;7.20;99.90;;;;;;4964217;28;20090;-67
2023/01/15 03:08:52;;;;;;;0.10;0.10;;;7.20;99.90;;;;;;5023197;28;20194;-67
2023/01/15 03:11:18;;;;;;;0.40;0.40;;;7.20;99.90;;;;;;5050836;28;20160;-67
2023/01/15 03:14:00;;;;;;;39.92;2.05;;;7.20;99.90;;;;;;5045516;28;20118;-68
2023/01/15 03:16:39;;;;;;;0.90;0.90;;;7.10;99.90;;;;;;5048417;28;20048;-67
2023/01/15 03:19:13;;;;;;;6.97;2.72;;;7.10;99.90;;;;;;5064083;28;20438;-67
2023/01/15 03:21:50;;;;;;;1.00;0.85;;;7.10;99.90;;;;;;5049451;28;20057;-67
2023/01/15 03:24:40;;;;;;;0.57;0.57;;;7.10;99.90;;;;;;5038969;28;20128;-67
2023/01/15 03:27:06;;;;;;;0.00;0.00;;;7.00;99.90;;;;;;5045681;28;20084;-67
2023/01/15 03:29:37;;;;;;;0.10;0.10;;;7.10;99.90;;;;;;5063595;28;20075;-67
2023/01/15 03:32:04;;;;;;;0.10;0.10;;;7.10;99.90;;;;;;5067648;28;20044;-66
2023/01/15 03:34:43;;;;;;;0.10;0.10;;;7.10;99.90;;;;;;5045292;28;20071;-67
2023/01/15 03:37:10;;;;;;;0.10;0.10;;;7.10;99.90;;;;;;5047328;28;20083;-67
2023/01/15 03:39:35;;;;;;;0.10;0.10;;;7.00;99.90;;;;;;5067212;28;20044;-67
2023/01/15 03:42:17;;;;;;;0.10;0.10;;;7.00;99.90;;;;;;5049241;28;20044;-67
2023/01/15 03:45:10;;;;;;;0.10;0.10;;;7.00;99.90;;;;;;5065138;28;20524;-67
2023/01/15 03:47:56;;;;;;;0.00;0.00;;;7.00;99.90;;;;;;5041829;28;20044;-68
2023/01/15 03:50:53;;;;;;;0.25;0.25;;;7.00;99.90;;;;;;5065319;28;20048;-67
2023/01/15 03:53:39;;;;;;;0.15;0.15;;;7.00;99.90;;;;;;5065801;28;20044;-68
2023/01/15 03:56:15;;;;;;;0.80;0.80;;;6.90;99.90;;;;;;5028937;28;20514;-67
2023/01/15 03:58:48;;;;;;;0.05;0.05;;;6.90;99.90;;;;;;5039146;28;21154;-67
2023/01/15 04:01:22;;;;;;;3.15;1.30;;;6.80;99.90;;;;;;5060593;28;20484;-67
2023/01/15 04:03:50;;;;;;;0.10;0.10;;;6.90;99.90;;;;;;5059020;28;20044;-67
2023/01/15 04:06:17;;;;;;;0.10;0.10;;;6.80;99.90;;;;;;5047878;28;20049;-67
2023/01/15 04:08:45;;;;;;;0.10;0.10;;;6.80;99.90;;;;;;5061205;28;20059;-67
2023/01/15 04:11:11;;;;;;;0.73;0.73;;;6.80;99.90;;;;;;5041763;28;20049;-67
2023/01/15 04:13:36;;;;;;;0.10;0.10;;;6.80;99.90;;;;;;5046351;28;20048;-67
2023/01/15 04:16:02;;;;;;;0.10;0.10;;;6.80;99.90;;;;;;5067811;28;20452;-67
2023/01/15 04:18:27;;;;;;;0.10;0.10;;;6.80;99.90;;;;;;5065176;28;20375;-67
2023/01/15 04:20:54;;;;;;;0.15;0.15;;;6.80;99.90;;;;;;5065639;28;20036;-67
2023/01/15 04:23:20;;;;;;;0.10;0.10;;;6.70;99.90;;;;;;5065949;28;20052;-67
2023/01/15 04:25:46;;;;;;;0.10;0.10;;;6.70;99.90;;;;;;5016790;28;20063;-68
2023/01/15 04:28:11;;;;;;;0.20;0.20;;;6.70;99.90;;;;;;5057918;28;20716;-67
2023/01/15 04:30:37;;;;;;;0.10;0.10;;;6.70;99.90;;;;;;5038457;28;20098;-67
2023/01/15 04:33:03;;;;;;;0.10;0.10;;;6.70;99.90;;;;;;5045259;28;20117;-68
2023/01/15 04:35:29;;;;;;;0.10;0.10;;;6.80;99.90;;;;;;5026838;28;20087;-67
2023/01/15 04:37:58;;;;;;;0.20;0.20;;;6.70;99.90;;;;;;5060621;28;20368;-68
2023/01/15 04:45:56;;;;;;;4.18;3.10;;;6.60;99.90;;;;;;5063897;28;20123;-67
2023/01/15 04:48:21;;;;;;;0.10;0.10;;;6.70;99.90;;;;;;5028023;28;20532;-67
2023/01/15 04:50:47;;;;;;;0.10;0.10;;;6.60;99.90;;;;;;5039363;28;20052;-67
2023/01/15 04:53:13;;;;;;;0.85;0.85;;;6.60;99.90;;;;;;5036922;28;20095;-67
2023/01/15 04:55:38;;;;;;;0.30;0.30;;;6.60;99.90;;;;;;5057678;28;20039;-67
2023/01/15 04:58:04;;;;;;;0.25;0.25;;;6.60;99.90;;;;;;5046488;28;20133;-67
2023/01/15 05:00:29;;;;;;;0.15;0.15;;;6.60;99.90;;;;;;5045309;28;20157;-67
2023/01/15 05:02:55;;;;;;;0.55;0.55;;;6.60;99.90;;;;;;5046520;28;20044;-67
2023/01/15 05:05:20;;;;;;;3.53;1.75;;;6.60;99.90;;;;;;5031481;28;20519;-67
2023/01/15 05:07:46;;;;;;;0.10;0.10;;;6.60;99.90;;;;;;5064716;28;20080;-67
2023/01/15 05:10:12;;;;;;;0.10;0.10;;;6.60;99.90;;;;;;5064671;28;20403;-67
2023/01/15 05:12:37;;;;;;;0.73;0.73;;;6.60;99.90;;;;;;5065178;28;20047;-67
2023/01/15 05:15:03;;;;;;;0.65;0.65;;;6.50;99.90;;;;;;5052791;28;20033;-67
2023/01/15 05:17:31;;;;;;;0.35;0.35;;;6.50;99.90;;;;;;5032376;28;20080;-67
2023/01/15 05:19:57;;;;;;;0.10;0.10;;;6.50;99.90;;;;;;5052299;28;20037;-67
2023/01/15 05:22:22;;;;;;;0.57;0.57;;;6.40;99.90;;;;;;5065657;28;20052;-67
2023/01/15 05:24:48;;;;;;;0.38;0.38;;;6.40;99.90;;;;;;5052138;28;20044;-67
2023/01/15 05:27:13;;;;;;;0.65;0.65;;;6.30;99.90;;;;;;5051807;28;20040;-67
2023/01/15 05:29:39;;;;;;;0.10;0.10;;;6.40;99.90;;;;;;5057560;28;20088;-67
2023/01/15 05:32:04;;;;;;;0.10;0.10;;;6.40;99.90;;;;;;5066190;28;20044;-67
2023/01/15 05:34:30;;;;;;;0.10;0.10;;;6.40;99.90;;;;;;5069826;28;20055;-67
2023/01/15 05:36:56;;;;;;;0.45;0.45;;;6.40;99.90;;;;;;5068701;28;20080;-67
2023/01/15 05:39:21;;;;;;;1.83;1.38;;;6.40;99.90;;;;;;5060478;28;20047;-67
2023/01/15 05:41:49;;;;;;;0.10;0.10;;;6.40;99.90;;;;;;5047190;28;20053;-67
2023/01/15 05:44:26;;;;;;;0.90;0.90;;;6.30;99.90;;;;;;5065030;28;20399;-67
2023/01/15 05:46:54;;;;;;;0.00;0.00;;;6.40;99.90;;;;;;5069253;28;20048;-67
2023/01/15 05:49:22;;;;;;;0.10;0.10;;;6.30;99.90;;;;;;5058484;28;20047;-67
2023/01/15 05:51:49;;;;;;;0.10;0.10;;;6.30;99.90;;;;;;5046813;28;20055;-67
2023/01/15 05:54:17;;;;;;;0.10;0.10;;;6.30;99.90;;;;;;5058113;28;20043;-66
2023/01/15 05:56:44;;;;;;;5.03;0.57;;;6.40;99.90;;;;;;5055214;28;20048;-66
2023/01/15 05:59:11;;;;;;;0.10;0.10;;;6.40;99.90;;;;;;5068851;28;20056;-66
2023/01/15 06:01:37;;;;;;;1.55;1.45;;;6.30;99.90;;;;;;5060046;28;20044;-67
2023/01/15 06:04:04;;;;;;;0.75;0.75;;;6.30;99.90;;;;;;5059311;28;20045;-66
2023/01/15 06:06:30;;;;;;;3.92;2.42;;;6.40;99.90;;;;;;5059508;28;20411;-66
2023/01/15 06:08:56;;;;;;;0.10;0.10;;;6.40;99.90;;;;;;5048439;28;20485;-67
2023/01/15 06:11:22;;;;;;;0.10;0.10;;;6.30;99.90;;;;;;5059057;28;20112;-66
2023/01/15 06:13:47;;;;;;;0.10;0.10;;;6.30;99.90;;;;;;5047331;28;20063;-66
2023/01/15 06:16:13;;;;;;;0.35;0.35;;;6.30;99.90;;;;;;5067289;28;20033;-67
2023/01/15 06:18:39;;;;;;;0.10;0.10;;;6.20;99.90;;;;;;5047632;28;20036;-67
2023/01/15 06:21:07;;;;;;;0.10;0.10;;;6.20;99.90;;;;;;5047242;28;20055;-67
2023/01/15 06:23:35;;;;;;;0.88;0.85;;;6.20;99.90;;;;;;5042300;28;20934;-67
2023/01/15 06:26:02;;;;;;;0.10;0.10;;;6.20;99.90;;;;;;5054533;28;20059;-67
2023/01/15 06:28:28;;;;;;;0.50;0.50;;;6.20;99.90;;;;;;5063444;28;20051;-67
2023/01/15 06:30:53;;;;;;;0.10;0.10;;;6.20;99.90;;;;;;5046815;28;20041;-67
2023/01/15 06:33:19;;;;;;;9.32;1.38;;;6.20;99.90;;;;;;5052955;28;20071;-67
2023/01/15 06:35:45;;;;;;;0.10;0.10;;;6.20;99.90;;;;;;5047176;28;20044;-67
2023/01/15 06:38:11;;;;;;;0.17;0.17;;;6.10;99.90;;;;;;5041465;28;20178;-67
2023/01/15 06:40:36;;;;;;;0.10;0.10;;;6.20;99.90;;;;;;5066359;28;20114;-66
2023/01/15 06:48:30;;;;;;;;;;;6.10;99.90;;;;;;5044271;28;20103;-67
2023/01/15 06:50:56;;;;;;;0.10;0.10;;;6.10;99.90;;;;;;5045028;28;19964;-67
2023/01/15 06:53:21;;;;;;;0.30;0.30;;;6.10;99.90;;;;;;5065690;28;20036;-67
2023/01/15 06:55:47;;;;;;;19.08;2.83;;;6.10;99.90;;;;;;5061319;28;20041;-66
2023/01/15 06:58:13;;;;;;;0.90;0.70;;;6.10;99.90;;;;;;5063287;28;20040;-67
2023/01/15 07:00:41;;;;;;;0.10;0.10;;;6.20;99.90;;;;;;5065543;28;20453;-66
2023/01/15 07:03:07;;;;;;;0.47;0.47;;;6.20;99.90;;;;;;5060964;28;20033;-67
2023/01/15 07:05:33;;;;;;;5.25;2.17;;;6.20;99.90;;;;;;5061670;28;20087;-67
2023/01/15 07:07:59;;;;;;;0.10;0.10;;;6.30;99.90;;;;;;5067299;28;20103;-67
2023/01/15 07:10:25;;;;;;;0.10;0.10;;;6.30;99.90;;;;;;5057351;28;20049;-66
2023/01/15 07:12:51;;;;;;;0.10;0.10;;;6.30;99.90;;;;;;5046529;28;20423;-67
2023/01/15 07:15:16;;;;;;;0.10;0.10;;;6.30;99.90;;;;;;5047079;28;20499;-66
2023/01/15 07:17:42;;;;;;;0.10;0.10;;;6.40;99.90;;;;;;5046755;28;20041;-66
2023/01/15 07:20:08;;;;;;;0.40;0.40;;;6.40;99.90;;;;;;5053417;28;20835;-67
2023/01/15 07:22:34;;;;;;;0.10;0.10;;;6.30;99.90;;;;;;5045267;28;20439;-68
2023/01/15 07:25:03;;;;;;;0.55;0.55;;;6.40;99.90;;;;;;5038638;28;20064;-66
2023/01/15 07:27:29;;;;;;;0.10;0.10;;;6.40;99.90;;;;;;5046682;28;20041;-67
2023/01/15 07:29:54;;;;;;;0.10;0.10;;;6.40;99.90;;;;;;5058676;28;20059;-67
2023/01/15 07:32:20;;;;;;;0.10;0.10;;;6.30;99.90;;;;;;5037521;28;20494;-66
2023/01/15 07:34:45;;;;;;;0.20;0.20;;;6.30;99.90;;;;;;5047086;28;20348;-67
2023/01/15 07:37:11;;;;;;;0.35;0.35;;;6.40;99.90;;;;;;5025717;28;20074;-67
2023/01/15 07:39:36;;;;;;;0.10;0.10;;;6.40;99.90;;;;;;5045766;28;20048;-67
2023/01/15 07:50:25;;;;;;;0.10;0.10;;;6.50;99.90;;;;;;5065043;28;20044;-67
2023/01/15 07:52:51;;;;;;;0.47;0.28;;;6.50;99.90;;;;;;5045582;28;20040;-67
2023/01/15 07:55:17;;;;;;;10.13;0.80;;;6.40;99.90;;;;;;5046506;28;20079;-68
2023/01/15 07:57:43;;;;;;;0.00;0.00;;;6.40;99.90;;;;;;5038495;28;20164;-67
2023/01/15 08:00:15;;;;;;;0.15;0.15;;;6.40;99.90;;;;;;5031228;28;20047;-68
2023/01/15 08:02:41;;;;;;;0.10;0.10;;;6.30;99.90;;;;;;5045684;28;20135;-67
2023/01/15 08:05:08;;;;;;;0.10;0.10;;;6.40;99.90;;;;;;5052188;28;20128;-67
2023/01/15 08:07:38;;;;;;;1.27;0.98;;;6.30;99.90;;;;;;5035712;28;20056;-67
2023/01/15 08:10:04;;;;;;;0.10;0.10;;;6.30;99.90;;;;;;5062993;28;20511;-67
2023/01/15 08:15:14;;;;;;;0.20;0.20;;;6.30;99.90;;;;;;5038423;28;20087;-67
2023/01/15 08:17:46;;;;;;;0.22;0.22;;;6.30;99.90;;;;;;5066700;28;20068;-68
2023/01/15 08:20:17;;;;;;;0.10;0.10;;;6.30;99.90;;;;;;5042566;28;20835;-68
2023/01/15 08:22:43;;;;;;;0.10;0.10;;;6.30;99.90;;;;;;5032949;28;20064;-67
2023/01/15 08:25:14;;;;;;;0.10;0.10;;;6.20;99.90;;;;;;5063286;28;20526;-67
2023/01/15 08:27:44;;;;;;;0.10;0.10;;;6.20;99.90;;;;;;5053119;28;20060;-69
2023/01/15 08:30:15;;;;;;;0.10;0.10;;;6.20;99.90;;;;;;5058646;28;20055;-68
2023/01/15 08:32:41;;;;;;;0.10;0.10;;;6.00;99.90;;;;;;5042880;28;20052;-68
2023/01/15 08:35:07;;;;;;;0.10;0.10;;;5.90;99.90;;;;;;5046835;28;20370;-68
2023/01/15 08:37:33;;;;;;;0.10;0.10;;;5.80;99.90;;;;;;5050172;28;20082;-68
2023/01/15 08:39:59;;;;;;;0.10;0.10;;;5.80;99.90;;;;;;5066200;28;20044;-68
2023/01/15 08:42:24;;;;;;;0.10;0.10;;;5.90;99.90;;;;;;5064252;28;20403;-68
2023/01/15 08:44:50;;;;;;;0.22;0.22;;;6.00;99.90;;;;;;5047837;28;20048;-68
2023/01/15 08:47:16;;;;;;;0.10;0.10;;;6.10;99.90;;;;;;5061615;28;20119;-68
2023/01/15 08:49:42;;;;;;;0.10;0.10;;;6.10;99.90;;;;;;5047373;28;20052;-68
2023/01/15 08:52:08;;;;;;;0.32;0.32;;;6.10;99.90;;;;;;5064315;28;20822;-67
2023/01/15 08:54:33;;;;;;;2.38;2.05;;;6.20;99.90;;;;;;5061691;28;20041;-68
2023/01/15 08:57:00;;;;;;;0.20;0.20;;;6.30;99.90;;;;;;5046572;28;20455;-68
2023/01/15 08:59:25;;;;;;;0.10;0.10;;;6.30;99.90;;;;;;5048364;28;20123;-68
2023/01/15 09:01:51;;;;;;;0.10;0.10;;;6.30;99.90;;;;;;5039277;28;20571;-66
2023/01/15 09:04:19;;;;;;;0.10;0.10;;;6.40;99.90;;;;;;5044079;28;20051;-68
2023/01/15 09:06:45;;;;;;;0.10;0.10;;;6.40;99.90;;;;;;5034581;28;20389;-68
2023/01/15 09:09:11;;;;;;;0.85;0.85;;;6.60;99.90;;;;;;5045890;28;20373;-68
2023/01/15 09:11:40;;;;;;;0.73;0.68;;;6.60;99.90;;;;;;5058293;28;20051;-69
2023/01/15 09:14:11;;;;;;;0.30;0.30;;;6.60;99.90;;;;;;5059615;28;20044;-68
2023/01/15 09:16:37;;;;;;;0.10;0.10;;;6.70;99.90;;;;;;5037432;28;20570;-68
2023/01/15 09:19:04;;;;;;;2.03;1.90;;;6.70;99.90;;;;;;5065902;28;20506;-68
2023/01/15 09:21:30;;;;;;;0.10;0.10;;;6.70;99.90;;;;;;5057481;28;20041;-67
2023/01/15 09:23:56;;;;;;;0.00;0.00;;;6.80;99.90;;;;;;5055866;28;20045;-68
2023/01/15 09:26:35;;;;;;;0.10;0.10;;;6.80;99.90;;;;;;5047120;28;20048;-68
2023/01/15 09:29:02;;;;;;;0.10;0.10;;;6.90;99.90;;;;;;5045931;28;20052;-68
2023/01/15 09:31:28;;;;;;;0.10;0.10;;;6.90;99.90;;;;;;5042872;28;20044;-67
2023/01/15 09:33:53;;;;;;;0.10;0.10;;;6.90;99.90;;;;;;5050446;28;20072;-67
2023/01/15 09:36:30;;;;;;;0.10;0.10;;;6.90;99.90;;;;;;5065800;28;20447;-67
2023/01/15 09:38:57;;;;;;;0.10;0.10;;;6.90;99.90;;;;;;5043025;28;20060;-67
2023/01/15 09:44:12;;;;;;;0.10;0.10;;;6.80;99.90;;;;;;5028093;28;20102;-67
2023/01/15 09:46:51;;;;;;;0.10;0.10;;;6.80;99.90;;;;;;5041089;28;20048;-67
2023/01/15 09:49:27;;;;;;;0.10;0.10;;;6.60;99.90;;;;;;5054472;28;20051;-68
2023/01/15 09:52:21;;;;;;;12.60;3.42;;;6.70;99.90;;;;;;5063641;28;20056;-68
2023/01/15 09:54:58;;;;;;;0.20;0.20;;;6.80;99.90;;;;;;5036025;28;20052;-67
2023/01/15 09:57:26;;;;;;;0.10;0.10;;;6.90;99.90;;;;;;5061635;28;20040;-67
2023/01/15 09:59:59;;;;;;;0.10;0.10;;;6.90;99.90;;;;;;5056919;28;20036;-67
2023/01/15 10:02:48;;;;;;;0.20;0.20;;;7.00;99.90;;;;;;5033353;28;20053;-67
2023/01/15 10:05:25;;;;;;;0.10;0.10;;;7.00;99.90;;;;;;5045501;28;20488;-67
2023/01/15 10:08:11;;;;;;;0.10;0.10;;;7.00;99.90;;;;;;5039873;28;20059;-67
2023/01/15 10:10:46;;;;;;;2.67;1.42;;;7.00;99.90;;;;;;5060907;28;20040;-67
2023/01/15 10:13:40;;;;;;;2.03;0.73;;;6.90;99.90;;;;;;5045167;28;20041;-67
2023/01/15 10:16:07;;;;;;;0.20;0.20;;;6.80;99.90;;;;;;5027879;28;20051;-67
2023/01/15 10:18:34;;;;;;;0.10;0.10;;;6.80;99.90;;;;;;5046912;28;20057;-67
2023/01/15 10:21:08;;;;;;;0.10;0.10;;;6.80;99.90;;;;;;5053040;28;20048;-67
2023/01/15 10:23:45;;;;;;;0.70;0.70;;;6.80;99.90;;;;;;5045163;28;20055;-66
2023/01/15 10:26:39;;;;;;;0.10;0.10;;;6.90;99.90;;;;;;5042754;28;20048;-67
2023/01/15 10:29:35;;;;;;;0.10;0.10;;;6.90;99.90;;;;;;5046116;28;20090;-66
2023/01/15 10:32:13;;;;;;;0.10;0.10;;;7.10;99.90;;;;;;5055594;28;20052;-67
2023/01/15 10:35:09;;;;;;;0.95;0.88;;;7.30;99.90;;;;;;5055143;28;20052;-67
2023/01/15 10:37:42;;;;;;;0.10;0.10;;;7.40;99.90;;;;;;5059869;28;20461;-68
2023/01/15 10:40:33;;;;;;;0.10;0.10;;;7.40;99.90;;;;;;5041952;28;20099;-67
2023/01/15 10:43:07;;;;;;;0.10;0.10;;;7.50;99.90;;;;;;5061146;28;20033;-66
2023/01/15 10:45:39;;;;;;;0.38;0.25;;;7.40;99.90;;;;;;5065326;28;20055;-67
2023/01/15 10:48:28;;;;;;;0.28;0.28;;;7.40;99.90;;;;;;5063351;28;20040;-67
2023/01/15 10:50:55;;;;;;;1.42;1.38;;;7.40;99.90;;;;;;5034664;28;20056;-67
2023/01/15 10:53:33;;;;;;;2.00;0.98;;;7.40;99.90;;;;;;5049357;28;20047;-67
2023/01/15 10:56:17;;;;;;;0.57;0.57;;;7.50;99.90;;;;;;5033708;28;20467;-66
2023/01/15 10:58:45;;;;;;;;;;;7.30;99.90;;;;;;5051769;28;20058;-66
2023/01/15 11:01:18;;;;;;;0.10;0.10;;;7.20;99.90;;;;;;5056483;28;19966;-67
2023/01/15 11:03:44;;;;;;;0.70;0.70;;;7.30;99.90;;;;;;5030255;28;20132;-69
2023/01/15 11:06:22;;;;;;;2.05;1.45;;;7.30;99.90;;;;;;5019830;28;20056;-68
2023/01/15 11:08:53;;;;;;;0.10;0.10;;;7.30;99.90;;;;;;5041934;28;20060;-66
2023/01/15 11:19:57;;;;;;;0.43;0.43;;;7.20;99.90;;;;;;5040368;28;20514;-68
2023/01/15 11:22:22;;;;;;;0.10;0.10;;;7.10;99.90;;;;;;5028265;28;20041;-69
2023/01/15 11:24:51;;;;;;;0.45;0.45;;;7.10;99.90;;;;;;5043284;28;21227;-67
2023/01/15 11:27:21;;;;;;;0.10;0.10;;;7.00;99.90;;;;;;5057732;28;20036;-67
2023/01/15 11:29:53;;;;;;;1.38;1.27;;;7.00;99.90;;;;;;5045033;28;20044;-66
2023/01/15 11:32:32;;;;;;;5.47;1.65;;;6.90;99.90;;;;;;5030563;28;20079;-66
2023/01/15 11:35:01;;;;;;;0.10;0.10;;;6.90;99.90;;;;;;5059976;28;20048;-66
2023/01/15 11:37:27;;;;;;;0.10;0.10;;;7.00;99.90;;;;;;5064835;28;20456;-66
2023/01/15 11:39:55;;;;;;;0.13;0.13;;;6.90;99.90;;;;;;5064673;28;20493;-66
2023/01/15 11:50:59;;;;;;;0.10;0.10;;;6.30;99.90;;;;;;5056534;28;20110;-67
2023/01/15 11:53:27;;;;;;;0.10;0.10;;;6.30;99.90;;;;;;5064593;28;20079;-68
2023/01/15 11:56:05;;;;;;;0.10;0.10;;;6.20;99.90;;;;;;5062800;28;20049;-67
2023/01/15 11:58:41;;;;;;;0.10;0.10;;;6.20;99.90;;;;;;5062314;28;21396;-67
2023/01/15 12:01:08;;;;;;;0.10;0.10;;;6.20;99.90;;;;;;5059502;28;20063;-67
2023/01/15 12:03:35;;;;;;;0.63;0.63;;;6.20;99.90;;;;;;5046793;28;20072;-67
2023/01/15 12:06:08;;;;;;;0.98;0.90;;;6.20;99.90;;;;;;5041804;28;20053;-66
2023/01/15 12:09:04;;;;;;;3.75;2.33;;;6.30;99.90;;;;;;5052948;28;20028;-67
2023/01/15 12:11:49;;;;;;;0.10;0.10;;;6.30;99.90;;;;;;5045157;28;20048;-67
2023/01/15 12:14:32;;;;;;;0.10;0.10;;;6.30;99.90;;;;;;5061078;28;20125;-67
2023/01/15 12:17:32;;;;;;;1.73;1.60;;;6.30;99.90;;;;;;5054438;28;20045;-67
2023/01/15 12:20:35;;;;;;;0.10;0.10;;;6.40;99.90;;;;;;5044251;28;20076;-67
2023/01/15 12:23:30;;;;;;;0.10;0.10;;;6.40;99.90;;;;;;5051180;28;20072;-67
2023/01/15 12:26:16;;;;;;;0.30;0.30;;;6.40;99.90;;;;;;5043479;28;20045;-67
2023/01/15 12:28:56;;;;;;;0.17;0.17;;;6.40;99.90;;;;;;5046008;28;20059;-67
2023/01/15 12:31:37;;;;;;;0.10;0.10;;;6.40;99.90;;;;;;5062116;28;20409;-67
2023/01/15 12:34:22;;;;;;;0.10;0.10;;;6.40;99.90;;;;;;5063388;28;20095;-67
2023/01/15 12:37:01;;;;;;;0.10;0.10;;;6.40;99.90;;;;;;5064491;28;20052;-67
2023/01/15 12:40:09;;;;;;;0.10;0.10;;;6.40;99.90;;;;;;5057383;28;20122;-67
2023/01/15 12:45:25;;;;;;;0.10;0.10;;;6.40;99.90;;;;;;5054425;28;20595;-67
2023/01/15 12:47:55;;;;;;;0.95;0.95;;;6.40;99.90;;;;;;5055803;28;20049;-68
2023/01/15 12:50:44;;;;;;;0.10;0.10;;;6.50;99.90;;;;;;5064624;28;20411;-67
2023/01/15 12:53:47;;;;;;;0.32;0.32;;;6.50;99.90;;;;;;5060469;28;20306;-67
2023/01/15 12:56:44;;;;;;;0.22;0.22;;;6.60;99.90;;;;;;5041696;28;20040;-67
2023/01/15 12:59:48;;;;;;;0.10;0.10;;;6.50;99.90;;;;;;5046209;28;20044;-67
2023/01/15 13:02:28;;;;;;;0.10;0.10;;;6.50;99.90;;;;;;5027193;28;20478;-67
2023/01/15 13:05:18;;;;;;;0.10;0.10;;;6.50;99.90;;;;;;5055610;28;20044;-68
2023/01/15 13:08:22;;;;;;;0.10;0.10;;;6.00;99.90;;;;;;5051489;28;20094;-68
2023/01/15 13:10:51;;;;;;;0.13;0.13;;;5.70;99.90;;;;;;5049211;28;20166;-68
2023/01/15 13:13:28;;;;;;;0.10;0.10;;;5.50;99.90;;;;;;5049062;28;20079;-68
2023/01/15 13:16:12;;;;;;;4.10;2.17;;;5.50;99.90;;;;;;5056123;28;20491;-69
2023/01/15 13:18:43;;;;;;;0.28;0.28;;;5.50;99.90;;;;;;5044991;28;20101;-68
2023/01/15 13:21:13;;;;;;;0.10;0.10;;;5.50;99.90;;;;;;5040004;28;20045;-68
2023/01/15 13:23:50;;;;;;;0.10;0.10;;;5.50;99.90;;;;;;5033502;28;20037;-68
2023/01/15 13:26:31;;;;;;;0.10;0.10;;;5.50;99.90;;;;;;5047059;28;20048;-68
2023/01/15 13:29:14;;;;;;;0.10;0.10;;;5.50;99.90;;;;;;5055493;28;20060;-68
2023/01/15 13:31:40;;;;;;;0.10;0.10;;;5.60;99.90;;;;;;5035731;28;20493;-67
2023/01/15 13:34:23;;;;;;;0.10;0.10;;;5.80;99.90;;;;;;5035002;28;20037;-68
2023/01/15 13:36:52;;;;;;;0.10;0.10;;;5.90;99.90;;;;;;5038673;28;20044;-68
2023/01/15 13:39:26;;;;;;;0.10;0.10;;;6.00;99.90;;;;;;5040503;28;20396;-68
2023/01/15 13:44:45;;;;;;;0.10;0.10;;;6.20;99.90;;;;;;5061003;28;20095;-68
2023/01/15 13:47:16;;;;;;;;;;;6.30;99.90;;;;;;5051431;28;20056;-68
2023/01/15 13:49:48;;;;;;;0.10;0.10;;;6.40;99.90;;;;;;5039785;28;19986;-68
2023/01/15 13:52:26;;;;;;;0.20;0.20;;;6.50;99.90;;;;;;5043087;28;20064;-67
2023/01/15 13:54:54;;;;;;;0.10;0.10;;;6.50;99.90;;;;;;5057042;28;20044;-68
2023/01/15 13:57:33;;;;;;;0.13;0.13;;;6.50;99.90;;;;;;5050639;28;20037;-67
2023/01/15 13:59:58;;;;;;;0.05;0.05;;;6.50;99.90;;;;;;5055488;28;20500;-68
2023/01/15 14:02:26;;;;;;;0.70;0.70;;;6.60;99.90;;;;;;5053405;28;20056;-67
2023/01/15 14:04:52;;;;;;;0.20;0.20;;;6.60;99.90;;;;;;5038657;28;20084;-67
2023/01/15 14:07:34;;;;;;;0.28;0.28;;;6.60;99.90;;;;;;5044583;28;20086;-67
2023/01/15 14:10:29;;;;;;;0.10;0.10;;;6.70;99.90;;;;;;5041412;28;20239;-68